createdAt,value
2019-04-25T00:00:44.752Z,95784.81
2019-04-25T00:03:12.208Z,95779.47
2019-04-25T00:05:37.103Z,95782.56
2019-04-25T00:08:02.768Z,95787.06
2019-04-25T00:10:28.786Z,95785.30
2019-04-25T00:12:54.805Z,95784.92
2019-04-25T00:15:22.229Z,95789.31
2019-04-25T00:17:46.871Z,95781.84
2019-04-25T00:20:12.895Z,95785.42
2019-04-25T00:22:39.299Z,95779.66
2019-04-25T00:25:15.284Z,95779.66
2019-04-25T00:27:31.997Z,95781.50
2019-04-25T00:29:56.934Z,95792.51
2019-04-25T00:32:22.942Z,95788.58
2019-04-25T00:34:48.937Z,95781.41
2019-04-25T00:37:14.931Z,95783.17
2019-04-25T00:39:43.454Z,95780.58
2019-04-25T00:42:06.952Z,95786.45
2019-04-25T00:44:33.047Z,95784.69
2019-04-25T00:46:59.084Z,95786.84
2019-04-25T00:49:25.064Z,95783.36
2019-04-25T00:51:52.371Z,95784.28
2019-04-25T00:54:17.080Z,95780.69
2019-04-25T00:56:45.797Z,95781.61
2019-04-25T00:59:09.098Z,95794.95
2019-04-25T01:01:35.111Z,95795.86
2019-04-25T01:04:02.324Z,95794.95
2019-04-25T01:06:27.107Z,95795.37
2019-04-25T01:08:54.568Z,95790.11
2019-04-25T01:11:19.116Z,95789.61
2019-04-25T01:13:45.133Z,95802.95
2019-04-25T01:16:11.989Z,95799.87
2019-04-25T01:18:37.462Z,95801.20
2019-04-25T01:21:04.468Z,95798.11
2019-04-25T01:23:29.164Z,95797.70
2019-04-25T01:25:55.847Z,95803.03
2019-04-25T01:28:21.184Z,95807.03
2019-04-25T01:30:47.886Z,95808.48
2019-04-25T01:33:13.541Z,95809.81
2019-04-25T01:35:39.223Z,95804.48
2019-04-25T01:38:05.239Z,95797.39
2019-04-25T01:40:31.244Z,95804.48
2019-04-25T01:42:57.949Z,95807.14
2019-04-25T01:45:23.952Z,95804.06
2019-04-25T01:47:50.114Z,95798.30
2019-04-25T01:50:15.289Z,95793.89
2019-04-25T01:52:41.280Z,95796.89
2019-04-25T01:55:07.291Z,95799.22
2019-04-25T01:57:33.727Z,95806.31
2019-04-25T01:59:59.316Z,95798.30
2019-04-25T02:02:25.316Z,95789.47
2019-04-25T02:04:51.419Z,95790.00
2019-04-25T02:07:17.334Z,95792.66
2019-04-25T02:09:43.618Z,95793.47
2019-04-25T02:12:09.334Z,95795.75
2019-04-25T02:14:35.336Z,95798.80
2019-04-25T02:17:02.318Z,95795.22
2019-04-25T02:19:27.347Z,95790.41
2019-04-25T02:21:54.544Z,95785.88
2019-04-25T02:24:19.397Z,95784.66
2019-04-25T02:26:45.390Z,95781.99
2019-04-25T02:29:11.405Z,95784.66
2019-04-25T02:31:37.412Z,95777.57
2019-04-25T02:34:06.565Z,95777.57
2019-04-25T02:36:29.431Z,95787.33
2019-04-25T02:38:59.581Z,95788.32
2019-04-25T02:41:21.467Z,95785.08
2019-04-25T02:43:47.482Z,95785.16
2019-04-25T02:46:15.161Z,95778.91
2019-04-25T02:48:39.512Z,95787.83
2019-04-25T02:51:07.401Z,95790.61
2019-04-25T02:53:34.476Z,95786.19
2019-04-25T02:55:57.784Z,95792.33
2019-04-25T02:58:24.311Z,95798.99
2019-04-25T03:00:57.308Z,95803.42
2019-04-25T03:03:15.598Z,95798.99
2019-04-25T03:05:41.627Z,95794.61
2019-04-25T03:08:10.073Z,95796.86
2019-04-25T03:10:34.918Z,95800.33
2019-04-25T03:13:00.301Z,95807.00
2019-04-25T03:15:25.655Z,95805.77
2019-04-25T03:17:51.649Z,95798.27
2019-04-25T03:20:17.707Z,95801.36
2019-04-25T03:22:44.465Z,95803.19
2019-04-25T03:25:13.051Z,95799.60
2019-04-25T03:27:35.730Z,95795.19
2019-04-25T03:30:02.011Z,95792.94
2019-04-25T03:32:28.394Z,95790.38
2019-04-25T03:34:54.894Z,95791.71
2019-04-25T03:37:19.850Z,95797.05
2019-04-25T03:39:45.848Z,95795.30
2019-04-25T03:42:12.043Z,95804.63
2019-04-25T03:44:37.914Z,95799.30
2019-04-25T03:47:06.442Z,95801.47
2019-04-25T03:49:29.960Z,95810.27
2019-04-25T03:51:55.963Z,95805.28
2019-04-25T03:54:23.130Z,95803.42
2019-04-25T03:56:53.676Z,95803.42
2019-04-25T03:59:14.637Z,95814.42
2019-04-25T04:01:39.976Z,95809.09
2019-04-25T04:04:07.090Z,95814.81
2019-04-25T04:06:32.002Z,95817.09
2019-04-25T04:08:58.030Z,95823.77
2019-04-25T04:11:24.028Z,95824.27
2019-04-25T04:13:50.037Z,95823.34
2019-04-25T04:16:16.039Z,95828.77
2019-04-25T04:18:42.057Z,95832.27
2019-04-25T04:21:08.968Z,95829.18
2019-04-25T04:23:34.095Z,95829.48
2019-04-25T04:26:00.147Z,95830.83
2019-04-25T04:28:26.175Z,95833.91
2019-04-25T04:30:53.950Z,95841.50
2019-04-25T04:33:29.469Z,95838.83
2019-04-25T04:35:44.243Z,95831.66
2019-04-25T04:38:10.311Z,95845.42
2019-04-25T04:40:36.311Z,95844.50
2019-04-25T04:43:02.334Z,95855.59
2019-04-25T04:45:28.540Z,95855.06
2019-04-25T04:47:54.583Z,95853.31
2019-04-25T04:50:20.578Z,95855.48
2019-04-25T04:52:46.602Z,95857.23
2019-04-25T04:55:14.616Z,95862.16
2019-04-25T04:57:38.635Z,95857.54
2019-04-25T05:00:04.663Z,95853.65
2019-04-25T05:02:30.658Z,95862.87
2019-04-25T05:04:56.683Z,95870.08
2019-04-25T05:07:23.719Z,95868.63
2019-04-25T05:09:48.701Z,95869.47
2019-04-25T05:12:15.272Z,95866.38
2019-04-25T05:14:40.804Z,95864.97
2019-04-25T05:17:06.828Z,95865.89
2019-04-25T05:19:33.526Z,95874.81
2019-04-25T05:21:58.849Z,95866.38
2019-04-25T05:24:26.257Z,95869.55
2019-04-25T05:26:50.901Z,95872.64
2019-04-25T05:29:21.034Z,95873.97
2019-04-25T05:31:43.937Z,95867.72
2019-04-25T05:34:08.970Z,95865.16
2019-04-25T05:36:34.957Z,95866.08
2019-04-25T05:39:00.971Z,95857.16
2019-04-25T05:41:26.992Z,95859.25
2019-04-25T05:43:53.590Z,95855.41
2019-04-25T05:46:19.078Z,95856.32
2019-04-25T05:48:45.223Z,95862.49
2019-04-25T05:51:11.246Z,95858.57
2019-04-25T05:53:37.273Z,95857.66
2019-04-25T05:56:04.169Z,95858.15
2019-04-25T05:58:29.284Z,95861.42
2019-04-25T06:00:55.313Z,95855.48
2019-04-25T06:03:21.305Z,95859.06
2019-04-25T06:05:47.354Z,95857.31
2019-04-25T06:08:14.140Z,95857.31
2019-04-25T06:10:39.416Z,95858.65
2019-04-25T06:13:05.455Z,95863.06
2019-04-25T06:15:33.188Z,95858.65
2019-04-25T06:17:57.489Z,95868.41
2019-04-25T06:20:24.600Z,95870.16
2019-04-25T06:22:49.514Z,95872.83
2019-04-25T06:25:16.403Z,95866.27
2019-04-25T06:27:41.552Z,95867.07
2019-04-25T06:30:07.620Z,95866.27
2019-04-25T06:32:35.026Z,95870.27
2019-04-25T06:34:59.706Z,95870.27
2019-04-25T06:37:25.887Z,95871.08
2019-04-25T06:39:51.706Z,95866.66
2019-04-25T06:42:17.739Z,95867.98
2019-04-25T06:44:43.735Z,95869.84
2019-04-25T06:47:09.765Z,95864.09
2019-04-25T06:49:37.328Z,95869.32
2019-04-25T06:52:01.795Z,95871.60
2019-04-25T06:54:28.134Z,95873.85
2019-04-25T06:56:53.824Z,95872.94
2019-04-25T06:59:19.861Z,95872.09
2019-04-25T07:01:45.860Z,95872.52
2019-04-25T07:04:11.881Z,95872.18
2019-04-25T07:06:37.882Z,95873.44
2019-04-25T07:09:03.917Z,95872.18
2019-04-25T07:11:30.490Z,95873.85
2019-04-25T07:13:55.943Z,95868.09
2019-04-25T07:16:24.048Z,95872.09
2019-04-25T07:18:47.974Z,95870.34
2019-04-25T07:21:14.301Z,95871.98
2019-04-25T07:23:40.403Z,95869.73
2019-04-25T07:26:06.050Z,95866.08
2019-04-25T07:28:32.840Z,95868.63
2019-04-25T07:30:58.083Z,95865.55
2019-04-25T07:33:26.880Z,95867.30
2019-04-25T07:35:50.080Z,95864.21
2019-04-25T07:38:16.094Z,95865.78
2019-04-25T07:40:43.352Z,95866.61
2019-04-25T07:43:08.155Z,95859.11
2019-04-25T07:45:35.045Z,95860.36
2019-04-25T07:48:00.178Z,95861.69
2019-04-25T07:50:27.000Z,95862.42
2019-04-25T07:52:53.750Z,95861.50
2019-04-25T07:55:18.268Z,95852.17
2019-04-25T07:57:44.381Z,95853.39
2019-04-25T08:00:10.291Z,95843.55
2019-04-25T08:02:36.339Z,95837.61
2019-04-25T08:05:04.155Z,95830.02
2019-04-25T08:07:28.358Z,95832.19
2019-04-25T08:09:54.362Z,95830.74
2019-04-25T08:12:20.420Z,95842.33
2019-04-25T08:14:46.448Z,95845.23
2019-04-25T08:17:12.450Z,95840.92
2019-04-25T08:19:39.319Z,95842.48
2019-04-25T08:22:04.495Z,95832.30
2019-04-25T08:24:30.787Z,95828.61
2019-04-25T08:26:56.547Z,95831.70
2019-04-25T08:29:23.655Z,95835.39
2019-04-25T08:31:48.612Z,95831.20
2019-04-25T08:34:14.692Z,95823.99
2019-04-25T08:36:41.478Z,95826.28
2019-04-25T08:39:06.599Z,95821.74
2019-04-25T08:41:34.869Z,95824.41
2019-04-25T08:43:58.671Z,95818.39
2019-04-25T08:46:25.312Z,95814.27
2019-04-25T08:48:50.808Z,95811.11
2019-04-25T08:51:16.840Z,95807.94
2019-04-25T08:53:44.942Z,95807.83
2019-04-25T08:56:08.847Z,95793.98
2019-04-25T08:58:35.448Z,95796.23
2019-04-25T09:01:01.527Z,95788.84
2019-04-25T09:03:26.886Z,95784.14
2019-04-25T09:05:53.557Z,95782.31
2019-04-25T09:08:18.903Z,95779.14
2019-04-25T09:10:45.050Z,95774.30
2019-04-25T09:13:10.995Z,95768.47
2019-04-25T09:15:38.032Z,95769.38
2019-04-25T09:18:04.047Z,95761.30
2019-04-25T09:20:29.024Z,95760.77
2019-04-25T09:22:55.045Z,95758.09
2019-04-25T09:25:21.065Z,95759.35
2019-04-25T09:27:47.123Z,95753.59
2019-04-25T09:30:14.327Z,95753.09
2019-04-25T09:32:39.905Z,95761.91
2019-04-25T09:35:05.221Z,95756.56
2019-04-25T09:37:31.223Z,95757.09
2019-04-25T09:39:57.246Z,95760.69
2019-04-25T09:42:23.802Z,95759.43
2019-04-25T09:44:49.304Z,95755.84
2019-04-25T09:47:15.299Z,95753.59
2019-04-25T09:49:41.596Z,95745.09
2019-04-25T09:52:07.358Z,95739.75
2019-04-25T09:54:33.526Z,95738.72
2019-04-25T09:56:59.421Z,95733.49
2019-04-25T09:59:27.956Z,95733.69
2019-04-25T10:01:51.609Z,95723.59
2019-04-25T10:04:17.721Z,95723.13
2019-04-25T10:06:44.954Z,95720.87
2019-04-25T10:09:09.750Z,95714.62
2019-04-25T10:11:35.759Z,95716.75
2019-04-25T10:14:01.779Z,95712.33
2019-04-25T10:16:27.776Z,95710.08
2019-04-25T10:18:53.797Z,95706.91
2019-04-25T10:21:19.817Z,95714.50
2019-04-25T10:23:46.833Z,95709.16
2019-04-25T10:26:11.950Z,95710.42
2019-04-25T10:28:38.737Z,95700.96
2019-04-25T10:31:03.982Z,95697.38
2019-04-25T10:33:30.006Z,95688.12
2019-04-25T10:35:59.587Z,95686.70
2019-04-25T10:38:22.037Z,95683.20
2019-04-25T10:40:48.015Z,95689.37
2019-04-25T10:43:14.239Z,95681.25
2019-04-25T10:45:40.739Z,95692.88
2019-04-25T10:48:06.123Z,95693.17
2019-04-25T10:50:33.994Z,95682.50
2019-04-25T10:52:58.200Z,95678.72
2019-04-25T10:55:24.216Z,95675.71
2019-04-25T10:57:51.067Z,95673.27
2019-04-25T11:00:16.224Z,95661.37
2019-04-25T11:02:43.202Z,95665.79
2019-04-25T11:05:08.279Z,95665.59
2019-04-25T11:07:34.317Z,95664.76
2019-04-25T11:10:00.368Z,95661.25
2019-04-25T11:12:26.431Z,95665.06
2019-04-25T11:14:53.307Z,95664.56
2019-04-25T11:17:18.446Z,95659.13
2019-04-25T11:19:44.614Z,95660.93
2019-04-25T11:22:10.476Z,95656.95
2019-04-25T11:24:36.494Z,95654.28
2019-04-25T11:27:04.203Z,95655.11
2019-04-25T11:29:28.492Z,95652.22
2019-04-25T11:31:54.555Z,95641.95
2019-04-25T11:34:20.645Z,95638.58
2019-04-25T11:36:46.565Z,95632.11
2019-04-25T11:39:13.547Z,95633.14
2019-04-25T11:41:38.583Z,95626.46
2019-04-25T11:44:04.690Z,95620.06
2019-04-25T11:46:30.685Z,95623.45
2019-04-25T11:48:56.687Z,95627.80
2019-04-25T11:51:24.061Z,95629.13
2019-04-25T11:53:48.731Z,95619.79
2019-04-25T11:56:14.788Z,95623.17
2019-04-25T11:58:40.783Z,95623.06
2019-04-25T12:01:06.796Z,95617.30
2019-04-25T12:03:33.616Z,95610.24
2019-04-25T12:05:58.972Z,95603.56
2019-04-25T12:08:25.095Z,95602.31
2019-04-25T12:10:51.630Z,95595.64
2019-04-25T12:13:17.144Z,95592.47
2019-04-25T12:15:45.707Z,95591.64
2019-04-25T12:18:09.181Z,95588.46
2019-04-25T12:20:35.157Z,95584.34
2019-04-25T12:23:08.112Z,95575.53
2019-04-25T12:25:27.184Z,95574.20
2019-04-25T12:27:53.804Z,95570.91
2019-04-25T12:30:19.213Z,95568.73
2019-04-25T12:32:46.405Z,95572.74
2019-04-25T12:35:11.283Z,95570.91
2019-04-25T12:37:37.689Z,95567.41
2019-04-25T12:40:05.906Z,95564.31
2019-04-25T12:42:29.708Z,95555.09
2019-04-25T12:44:56.137Z,95555.59
2019-04-25T12:47:21.761Z,95555.09
2019-04-25T12:49:48.610Z,95547.88
2019-04-25T12:52:13.853Z,95551.50
2019-04-25T12:54:40.079Z,95547.16
2019-04-25T12:57:06.796Z,95540.69
2019-04-25T12:59:32.533Z,95539.77
2019-04-25T13:01:58.531Z,95528.67
2019-04-25T13:04:24.556Z,95525.38
2019-04-25T13:06:50.590Z,95524.38
2019-04-25T13:09:16.568Z,95521.80
2019-04-25T13:11:54.066Z,95524.47
2019-04-25T13:14:23.184Z,95518.70
2019-04-25T13:16:52.285Z,95516.04
2019-04-25T13:19:23.775Z,95511.12
2019-04-25T13:21:44.311Z,95510.31
2019-04-25T13:24:10.517Z,95497.88
2019-04-25T13:26:36.317Z,95500.64
2019-04-25T13:29:04.069Z,95491.19
2019-04-25T13:31:28.364Z,95495.83
2019-04-25T13:33:54.415Z,95500.34
2019-04-25T13:36:20.402Z,95495.91
2019-04-25T13:38:46.433Z,95489.66
2019-04-25T13:41:12.434Z,95488.32
2019-04-25T13:43:38.516Z,95482.56
2019-04-25T13:46:04.538Z,95481.23
2019-04-25T13:48:30.602Z,95474.25
2019-04-25T13:50:56.604Z,95473.22
2019-04-25T13:53:23.543Z,95466.96
2019-04-25T13:55:48.639Z,95468.80
2019-04-25T13:58:14.636Z,95479.89
2019-04-25T14:00:40.666Z,95478.86
2019-04-25T14:03:06.663Z,95479.39
2019-04-25T14:05:33.996Z,95470.55
2019-04-25T14:07:58.694Z,95475.69
2019-04-25T14:10:25.190Z,95470.97
2019-04-25T14:12:50.754Z,95478.06
2019-04-25T14:15:16.829Z,95475.69
2019-04-25T14:17:44.750Z,95471.80
2019-04-25T14:20:08.935Z,95479.81
2019-04-25T14:22:34.967Z,95477.64
2019-04-25T14:25:00.963Z,95482.36
2019-04-25T14:27:27.982Z,95479.81
2019-04-25T14:29:53.570Z,95480.81
2019-04-25T14:32:19.008Z,95479.89
2019-04-25T14:34:45.018Z,95481.64
2019-04-25T14:37:11.048Z,95481.64
2019-04-25T14:39:37.076Z,95478.56
2019-04-25T14:42:03.109Z,95474.75
2019-04-25T14:44:29.141Z,95478.14
2019-04-25T14:46:55.185Z,95470.55
2019-04-25T14:49:21.644Z,95472.30
2019-04-25T14:51:47.208Z,95475.47
2019-04-25T14:54:13.226Z,95475.89
2019-04-25T14:56:39.236Z,95479.81
2019-04-25T14:59:05.263Z,95478.14
2019-04-25T15:01:43.176Z,95477.73
2019-04-25T15:03:57.334Z,95481.23
2019-04-25T15:06:24.377Z,95484.31
2019-04-25T15:08:49.380Z,95483.90
2019-04-25T15:11:15.476Z,95492.33
2019-04-25T15:13:41.477Z,95487.82
2019-04-25T15:16:07.495Z,95486.98
2019-04-25T15:18:45.842Z,95489.74
2019-04-25T15:20:59.735Z,95499.30
2019-04-25T15:23:25.898Z,95511.31
2019-04-25T15:25:51.903Z,95511.02
2019-04-25T15:28:17.922Z,95518.52
2019-04-25T15:30:43.953Z,95515.85
2019-04-25T15:33:09.952Z,95509.06
2019-04-25T15:35:36.025Z,95509.18
2019-04-25T15:38:02.023Z,95510.52
2019-04-25T15:40:28.907Z,95501.97
2019-04-25T15:42:54.088Z,95507.84
2019-04-25T15:45:20.110Z,95495.30
2019-04-25T15:47:46.162Z,95499.84
2019-04-25T15:50:12.267Z,95497.97
2019-04-25T15:52:39.044Z,95496.22
2019-04-25T15:55:07.251Z,95499.72
2019-04-25T15:57:30.323Z,95502.39
2019-04-25T15:59:56.333Z,95507.31
2019-04-25T16:02:22.333Z,95514.91
2019-04-25T16:04:48.615Z,95520.46
2019-04-25T16:07:14.955Z,95524.67
2019-04-25T16:09:41.387Z,95528.17
2019-04-25T16:12:07.213Z,95528.17
2019-04-25T16:14:33.392Z,95531.26
2019-04-25T16:16:59.266Z,95532.59
2019-04-25T16:19:25.305Z,95538.84
2019-04-25T16:21:51.411Z,95536.48
2019-04-25T16:24:17.964Z,95537.40
2019-04-25T16:26:43.960Z,95537.02
2019-04-25T16:29:10.064Z,95528.89
2019-04-25T16:31:36.760Z,95535.68
2019-04-25T16:34:02.086Z,95534.73
2019-04-25T16:36:28.095Z,95535.27
2019-04-25T16:38:54.592Z,95538.23
2019-04-25T16:41:20.617Z,95531.67
2019-04-25T16:43:46.878Z,95532.06
2019-04-25T16:46:12.900Z,95533.81
2019-04-25T16:48:39.225Z,95524.67
2019-04-25T16:51:05.036Z,95531.76
2019-04-25T16:53:31.414Z,95532.17
2019-04-25T16:55:57.091Z,95538.02
2019-04-25T16:58:23.420Z,95540.08
2019-04-25T17:00:49.137Z,95543.97
2019-04-25T17:03:15.165Z,95545.31
2019-04-25T17:05:41.194Z,95543.47
2019-04-25T17:08:07.222Z,95549.23
2019-04-25T17:10:36.916Z,95549.23
2019-04-25T17:13:02.712Z,95553.62
2019-04-25T17:15:30.494Z,95553.12
2019-04-25T17:17:55.027Z,95545.61
2019-04-25T17:20:21.035Z,95551.37
2019-04-25T17:22:47.290Z,95551.58
2019-04-25T17:25:13.386Z,95556.42
2019-04-25T17:27:39.405Z,95555.50
2019-04-25T17:30:05.424Z,95549.83
2019-04-25T17:32:31.726Z,95561.65
2019-04-25T17:34:57.441Z,95561.43
2019-04-25T17:37:23.462Z,95561.77
2019-04-25T17:39:49.918Z,95561.23
2019-04-25T17:42:15.904Z,95555.80
2019-04-25T17:44:42.572Z,95553.02
2019-04-25T17:47:08.016Z,95560.11
2019-04-25T17:49:34.264Z,95557.14
2019-04-25T17:52:00.028Z,95562.37
2019-04-25T17:54:26.078Z,95566.48
2019-04-25T17:56:52.073Z,95567.70
2019-04-25T17:59:18.071Z,95573.05
2019-04-25T18:01:44.348Z,95577.88
2019-04-25T18:04:10.239Z,95580.97
2019-04-25T18:06:36.266Z,95591.45
2019-04-25T18:09:02.281Z,95603.05
2019-04-25T18:11:28.293Z,95610.14
2019-04-25T18:13:54.370Z,95606.98
2019-04-25T18:16:20.332Z,95611.48
2019-04-25T18:18:46.320Z,95612.31
2019-04-25T18:21:12.337Z,95615.07
2019-04-25T18:23:38.674Z,95618.05
2019-04-25T18:26:04.386Z,95615.38
2019-04-25T18:28:30.378Z,95621.55
2019-04-25T18:30:56.425Z,95622.80
2019-04-25T18:33:22.398Z,95624.52
2019-04-25T18:35:48.504Z,95628.95
2019-04-25T18:38:14.550Z,95625.05
2019-04-25T18:40:40.544Z,95622.69
2019-04-25T18:43:06.563Z,95621.47
2019-04-25T18:45:32.574Z,95603.16
2019-04-25T18:47:58.729Z,95623.82
2019-04-25T18:50:24.727Z,95621.77
2019-04-25T18:52:50.755Z,95622.27
2019-04-25T18:55:16.750Z,95622.27
2019-04-25T18:57:43.290Z,95615.51
2019-04-25T19:00:08.805Z,95629.27
2019-04-25T19:02:34.795Z,95619.52
2019-04-25T19:05:03.446Z,95622.19
2019-04-25T19:07:30.174Z,95615.09
2019-04-25T19:12:35.953Z,95614.59
2019-04-25T19:15:01.987Z,95617.77
2019-04-25T19:17:35.677Z,95620.43
2019-04-25T19:20:01.702Z,95616.42
2019-04-25T19:22:27.721Z,95619.52
2019-04-25T19:24:53.786Z,95622.19
2019-04-25T19:27:24.096Z,95618.17
2019-04-25T19:29:45.971Z,95617.27
2019-04-25T19:32:11.990Z,95612.72
2019-04-25T19:34:37.999Z,95610.66
2019-04-25T19:37:04.013Z,95617.64
2019-04-25T19:39:30.109Z,95611.50
2019-04-25T19:41:56.099Z,95613.75
2019-04-25T19:44:22.310Z,95615.92
2019-04-25T19:46:49.204Z,95620.31
2019-04-25T19:49:14.351Z,95612.31
2019-04-25T19:51:41.646Z,95614.59
2019-04-25T19:54:06.412Z,95610.59
2019-04-25T19:56:32.397Z,95612.72
2019-04-25T19:58:58.403Z,95612.30
2019-04-25T20:01:24.416Z,95608.72
2019-04-25T20:03:56.461Z,95614.05
2019-04-25T20:06:16.439Z,95610.16
2019-04-25T20:08:43.516Z,95607.80
2019-04-25T20:11:08.481Z,95611.80
2019-04-25T20:13:34.470Z,95621.98
2019-04-25T20:16:00.501Z,95619.31
2019-04-25T20:18:26.512Z,95620.23
2019-04-25T20:20:52.531Z,95621.06
2019-04-25T20:23:18.719Z,95618.90
2019-04-25T20:25:45.400Z,95623.73
2019-04-25T20:28:10.808Z,95626.30
2019-04-25T20:30:36.798Z,95627.63
2019-04-25T20:33:02.818Z,95626.30
2019-04-25T20:35:28.816Z,95627.13
2019-04-25T20:37:55.621Z,95628.77
2019-04-25T20:40:20.915Z,95624.34
2019-04-25T20:42:47.964Z,95624.14
2019-04-25T20:45:12.870Z,95625.48
2019-04-25T20:47:38.881Z,95632.57
2019-04-25T20:50:04.904Z,95631.23
2019-04-25T20:52:30.907Z,95629.90
2019-04-25T20:54:57.005Z,95630.73
2019-04-25T20:57:22.903Z,95622.09
2019-04-25T20:59:49.340Z,95626.20
2019-04-25T21:02:14.944Z,95628.13
2019-04-25T21:04:40.965Z,95625.08
2019-04-25T21:07:06.963Z,95623.82
2019-04-25T21:09:32.979Z,95625.66
2019-04-25T21:11:58.991Z,95623.94
2019-04-25T21:14:25.026Z,95620.73
2019-04-25T21:16:51.837Z,95620.43
2019-04-25T21:19:17.047Z,95622.69
2019-04-25T21:21:43.065Z,95626.80
2019-04-25T21:24:09.076Z,95624.52
2019-04-25T21:26:35.084Z,95622.27
2019-04-25T21:29:01.104Z,95619.30
2019-04-25T21:31:27.095Z,95629.06
2019-04-25T21:33:53.117Z,95628.72
2019-04-25T21:36:19.129Z,95627.92
2019-04-25T21:38:45.146Z,95626.59
2019-04-25T21:41:11.163Z,95631.39
2019-04-25T21:43:37.158Z,95634.68
2019-04-25T21:46:03.194Z,95632.92
2019-04-25T21:48:29.170Z,95631.59
2019-04-25T21:50:55.189Z,95629.03
2019-04-25T21:53:21.178Z,95633.46
2019-04-25T21:55:47.183Z,95632.63
2019-04-25T21:58:13.193Z,95632.13
2019-04-25T22:00:39.219Z,95631.41
2019-04-25T22:03:05.244Z,95630.98
2019-04-25T22:05:31.253Z,95630.07
2019-04-25T22:07:57.257Z,95632.33
2019-04-25T22:10:23.293Z,95628.40
2019-04-25T22:12:49.295Z,95634.16
2019-04-25T22:15:15.296Z,95623.06
2019-04-25T22:17:41.313Z,95632.41
2019-04-25T22:20:07.311Z,95636.83
2019-04-25T22:22:33.335Z,95634.66
2019-04-25T22:25:00.422Z,95635.19
2019-04-25T22:27:25.448Z,95628.09
2019-04-25T22:29:51.451Z,95628.52
2019-04-25T22:32:17.466Z,95621.00
2019-04-25T22:34:52.029Z,95621.42
2019-04-25T22:37:09.503Z,95623.26
2019-04-25T22:39:35.517Z,95624.18
2019-04-25T22:42:01.967Z,95626.46
2019-04-25T22:44:27.529Z,95625.52
2019-04-25T22:46:53.531Z,95624.18
2019-04-25T22:49:19.547Z,95627.38
2019-04-25T22:51:45.543Z,95631.38
2019-04-25T22:54:11.820Z,95628.72
2019-04-25T22:56:37.565Z,95630.97
2019-04-25T22:59:03.562Z,95624.80
2019-04-25T23:01:29.598Z,95618.12
2019-04-25T23:03:55.589Z,95618.53
2019-04-25T23:06:21.601Z,95613.70
2019-04-25T23:08:47.606Z,95619.45
2019-04-25T23:11:13.617Z,95623.58
2019-04-25T23:13:39.639Z,95621.41
2019-04-25T23:16:05.648Z,95629.83
2019-04-25T23:18:31.701Z,95624.38
2019-04-25T23:20:57.691Z,95618.23
2019-04-25T23:23:23.694Z,95616.48
2019-04-25T23:25:49.721Z,95624.58
2019-04-25T23:28:15.708Z,95622.44
2019-04-25T23:30:41.729Z,95621.52
2019-04-25T23:33:08.475Z,95625.11
2019-04-25T23:35:34.228Z,95616.56
2019-04-25T23:37:59.755Z,95619.66
2019-04-25T23:40:25.747Z,95625.52
2019-04-25T23:42:51.761Z,95619.34
2019-04-25T23:45:17.758Z,95627.24
2019-04-25T23:47:43.785Z,95627.36
2019-04-25T23:50:10.503Z,95630.45
2019-04-25T23:52:35.799Z,95631.36
2019-04-25T23:55:01.842Z,95623.35
2019-04-25T23:57:27.829Z,95618.43
2019-04-25T23:59:53.850Z,95612.26
